Time;durP1;ratioP1;P1;durP2;ratioP2;P2;SDS_P1;SDS_P2;PMS_P1;PMS_P2;Temp;Humidity;BMP_temperature;BMP_pressure;BME280_temperature;BME280_humidity;BME280_pressure;Samples;Min_cycle;Max_cycle;Signal;HPM_P1;HPM_P2
2022/12/14 05:46:23;;;;;;;42.93;18.73;;;;;;;-6.86;100.00;100294.80;1761154;80;21169;-44
2022/12/14 05:48:50;;;;;;;39.70;18.70;;;;;;;-6.80;100.00;100305.01;1704160;82;21537;-38
2022/12/14 05:51:17;;;;;;;30.32;15.28;;;;;;;-6.74;100.00;100300.34;1677110;84;21085;-39
2022/12/14 05:53:43;;;;;;;21.48;13.03;;;;;;;-6.66;100.00;100302.16;1711216;82;21529;-38
2022/12/14 05:56:10;;;;;;;29.20;14.43;;;;;;;-6.60;100.00;100315.30;1676841;83;21441;-44
2022/12/14 05:58:37;;;;;;;21.42;13.70;;;;;;;-6.58;100.00;100311.58;1689284;82;20996;-37
2022/12/14 06:01:09;;;;;;;30.88;14.98;;;;;;;-6.55;100.00;100315.58;1686610;83;21118;-39
2022/12/14 06:03:37;;;;;;;23.62;14.13;;;;;;;-6.50;100.00;100312.96;1702072;82;21648;-43
2022/12/14 06:06:06;;;;;;;26.60;15.00;;;;;;;-6.43;100.00;100322.80;1703780;82;21156;-44
2022/12/14 06:08:35;;;;;;;23.15;13.28;;;;;;;-6.36;100.00;100319.00;1696500;82;21543;-38
2022/12/14 06:11:07;;;;;;;22.90;14.13;;;;;;;-6.25;100.00;100332.06;1697275;82;21014;-46
2022/12/14 06:13:35;;;;;;;23.92;14.23;;;;;;;-6.17;100.00;100333.05;1677347;83;21019;-45
2022/12/14 06:16:13;;;;;;;21.70;13.32;;;;;;;-6.10;100.00;100340.71;1700582;82;21032;-40
2022/12/14 06:18:46;;;;;;;26.48;15.38;;;;;;;-6.05;100.00;100336.81;1695514;82;21065;-39
2022/12/14 06:21:14;;;;;;;;;;;;;;;-5.96;100.00;100336.55;1744397;81;21097;-45
2022/12/14 06:23:41;;;;;;;24.90;13.50;;;;;;;-5.90;100.00;100340.73;1736694;81;20437;-45
2022/12/14 06:26:08;;;;;;;22.73;13.48;;;;;;;-5.85;100.00;100340.66;1740074;81;21148;-46
2022/12/14 06:28:35;;;;;;;23.67;13.85;;;;;;;-5.80;100.00;100340.92;1740439;81;20978;-39
2022/12/14 06:31:02;;;;;;;26.87;14.50;;;;;;;-5.76;100.00;100341.23;1736953;81;21114;-38
2022/12/14 06:33:29;;;;;;;29.50;15.18;;;;;;;-5.68;100.00;100343.03;1740567;80;21755;-45
2022/12/14 06:35:55;;;;;;;24.00;14.85;;;;;;;-5.58;100.00;100345.77;1709732;81;21632;-46
2022/12/14 06:38:28;;;;;;;23.80;13.43;;;;;;;-5.53;100.00;100354.20;1701986;82;21068;-46
2022/12/14 06:41:00;;;;;;;23.50;14.07;;;;;;;-5.47;100.00;100358.81;1625485;83;21141;-38
2022/12/14 06:43:38;;;;;;;24.23;14.13;;;;;;;-5.39;100.00;100357.66;1704159;82;21997;-46
2022/12/14 06:46:14;;;;;;;23.05;13.10;;;;;;;-5.32;100.00;100364.03;1713944;82;21056;-45
2022/12/14 06:52:14;;;;;;;25.88;14.18;;;;;;;-5.25;100.00;100372.16;1707956;82;21070;-46
2022/12/14 07:08:20;;;;;;;21.10;12.82;;;;;;;-5.04;100.00;100375.20;1712482;82;21054;-46
2022/12/14 07:11:45;;;;;;;26.10;16.12;;;;;;;-4.91;100.00;100384.11;1668052;84;21058;-40
2022/12/14 07:14:29;;;;;;;25.40;14.33;;;;;;;-4.84;100.00;100390.08;1718900;81;21527;-40
2022/12/14 07:17:26;;;;;;;27.07;15.70;;;;;;;-4.69;100.00;100390.56;1714184;81;21055;-46
2022/12/14 07:20:13;;;;;;;33.35;18.48;;;;;;;-4.58;100.00;100401.92;1708615;82;21029;-38
2022/12/14 07:22:59;;;;;;;34.58;18.82;;;;;;;-4.49;100.00;100403.27;1707593;82;21097;-40
2022/12/14 07:25:30;;;;;;;40.45;19.48;;;;;;;-4.42;100.00;100405.00;1678680;82;21018;-39
2022/12/14 07:27:57;;;;;;;38.15;18.55;;;;;;;-4.37;100.00;100407.44;1682733;83;21130;-46
2022/12/14 07:30:24;;;;;;;34.73;18.67;;;;;;;-4.34;99.77;100415.70;1683426;82;21367;-47
2022/12/14 07:32:51;;;;;;;38.23;19.40;;;;;;;-4.34;99.24;100423.37;1687920;83;21613;-46
2022/12/14 07:35:41;;;;;;;29.20;16.80;;;;;;;-4.34;99.24;100420.81;1684844;82;21589;-47
2022/12/14 07:38:39;;;;;;;27.37;17.00;;;;;;;-4.33;99.22;100422.58;1679551;83;21008;-46
2022/12/14 07:41:16;;;;;;;29.27;16.73;;;;;;;-4.26;99.22;100422.55;1693113;82;21641;-48
2022/12/14 07:43:43;;;;;;;28.15;16.62;;;;;;;-4.18;98.91;100427.72;1693968;82;21386;-38
2022/12/14 07:46:14;;;;;;;27.27;16.87;;;;;;;-4.10;98.87;100441.46;1692459;81;21668;-46
2022/12/14 07:48:46;;;;;;;27.80;16.77;;;;;;;-4.01;98.40;100434.33;1701038;81;21029;-40
2022/12/14 07:51:15;;;;;;;27.17;15.88;;;;;;;-3.91;98.15;100438.33;1704503;81;21245;-40
2022/12/14 07:53:48;;;;;;;30.25;19.32;;;;;;;-3.75;97.89;100441.41;1703774;81;21025;-47
2022/12/14 07:56:21;;;;;;;24.92;16.12;;;;;;;-3.57;97.58;100440.33;1692956;82;21067;-46
2022/12/14 07:58:51;;;;;;;28.98;17.77;;;;;;;-3.35;97.12;100451.02;1700438;81;21069;-38
2022/12/14 10:13:52;;;;;;;23.10;17.02;;;;;;;1.67;75.94;100467.44;1798373;77;23821;-40
2022/12/14 10:16:34;;;;;;;20.77;15.78;;;;;;;1.82;74.17;100470.61;1777152;78;21153;-47
2022/12/14 10:19:13;;;;;;;23.85;16.95;;;;;;;1.93;72.39;100476.18;1775473;78;21562;-47
2022/12/14 10:21:57;;;;;;;26.07;17.42;;;;;;;2.00;70.97;100475.58;1779210;78;21044;-43
2022/12/14 10:24:28;;;;;;;23.30;16.52;;;;;;;2.06;71.31;100475.80;1770796;79;21339;-41
2022/12/14 10:26:54;;;;;;;23.62;16.82;;;;;;;2.26;70.25;100479.10;1774601;78;21084;-48
2022/12/14 10:29:36;;;;;;;23.83;16.23;;;;;;;2.40;68.98;100476.63;1778298;80;21610;-40
2022/12/14 10:32:22;;;;;;;25.20;18.27;;;;;;;2.56;68.87;100485.38;1776560;78;21224;-47
2022/12/14 10:34:51;;;;;;;26.17;15.83;;;;;;;2.92;68.66;100490.93;1771109;78;21440;-42
2022/12/14 10:37:36;;;;;;;24.67;14.73;;;;;;;3.40;66.26;100487.31;1774199;78;21099;-42
2022/12/14 10:40:24;;;;;;;20.55;15.25;;;;;;;3.65;64.86;100488.56;1776900;79;20980;-43
2022/12/14 10:43:08;;;;;;;23.25;16.02;;;;;;;3.93;65.14;100496.72;1767884;78;21444;-48
2022/12/14 10:45:58;;;;;;;21.40;15.30;;;;;;;4.32;64.46;100490.08;1765976;79;21353;-50
2022/12/14 10:48:57;;;;;;;25.68;17.98;;;;;;;4.59;64.33;100487.38;1760011;79;21442;-48
2022/12/14 10:51:37;;;;;;;19.98;15.60;;;;;;;4.93;62.94;100483.94;1770264;78;21456;-49
2022/12/14 10:54:29;;;;;;;23.07;17.45;;;;;;;5.21;62.11;100484.21;1767038;79;21342;-48
2022/12/14 10:56:56;;;;;;;23.38;17.45;;;;;;;5.48;61.18;100484.88;1772796;79;21423;-48
2022/12/14 10:59:36;;;;;;;22.62;16.55;;;;;;;5.72;61.00;100474.18;1749213;80;21034;-47
2022/12/14 11:02:29;;;;;;;25.10;18.65;;;;;;;6.05;60.25;100469.31;1752920;80;21077;-51
2022/12/14 11:04:58;;;;;;;;;;;;;;;6.22;58.73;100468.36;1744912;81;21587;-41
2022/12/14 11:07:32;;;;;;;22.10;15.70;;;;;;;6.18;57.76;100470.00;1709572;81;20122;-45
2022/12/14 11:10:19;;;;;;;22.50;16.85;;;;;;;6.19;57.30;100466.56;1718983;81;21041;-47
2022/12/14 11:13:07;;;;;;;21.80;16.80;;;;;;;6.39;57.41;100466.55;1718998;80;21796;-48
2022/12/14 11:15:40;;;;;;;21.45;16.55;;;;;;;6.65;55.25;100462.25;1706339;81;20988;-40
2022/12/14 11:18:22;;;;;;;21.27;16.73;;;;;;;6.65;55.64;100451.86;1711556;81;21576;-45
2022/12/14 11:20:58;;;;;;;17.67;15.35;;;;;;;6.68;55.24;100462.75;1707627;83;21009;-47
2022/12/14 11:23:38;;;;;;;23.10;16.80;;;;;;;6.54;55.11;100471.58;1721773;81;21527;-46
2022/12/14 11:26:14;;;;;;;21.12;16.35;;;;;;;6.31;53.61;100469.83;1718063;81;21898;-48
2022/12/14 11:28:55;;;;;;;21.97;15.53;;;;;;;6.02;54.49;100477.89;1689399;83;20973;-50
2022/12/14 11:31:37;;;;;;;24.00;16.37;;;;;;;6.27;54.90;100471.94;1687115;83;21025;-47
2022/12/14 11:34:06;;;;;;;20.37;14.60;;;;;;;6.65;53.89;100468.33;1713302;83;21041;-46
2022/12/14 11:36:38;;;;;;;19.73;15.23;;;;;;;6.82;52.95;100467.34;1698474;83;21109;-48
2022/12/14 11:39:16;;;;;;;20.70;15.25;;;;;;;6.70;51.59;100468.42;1694346;83;21521;-47
2022/12/14 11:41:45;;;;;;;19.80;14.83;;;;;;;6.37;50.76;100473.41;1696555;83;21033;-49
2022/12/14 11:44:21;;;;;;;23.65;15.53;;;;;;;6.18;51.99;100481.70;1691586;83;21558;-48
2022/12/14 11:47:08;;;;;;;19.92;14.90;;;;;;;6.13;51.78;100478.13;1720410;81;21059;-47
2022/12/14 11:49:43;;;;;;;21.97;15.13;;;;;;;6.02;51.81;100481.79;1709218;81;21526;-47
2022/12/14 11:52:20;;;;;;;20.95;15.58;;;;;;;5.76;51.61;100482.50;1672763;83;21650;-40
2022/12/14 11:54:56;;;;;;;23.27;16.48;;;;;;;5.10;51.60;100487.83;1712359;82;20992;-41
2022/12/14 11:57:36;;;;;;;28.05;17.92;;;;;;;4.37;52.76;100497.14;1721881;81;21915;-39
2022/12/14 12:00:06;;;;;;;24.87;16.07;;;;;;;3.81;54.09;100500.66;1724806;81;20991;-49
2022/12/14 12:02:40;;;;;;;25.80;19.40;;;;;;;3.52;55.19;100504.92;1697458;83;21064;-49
2022/12/14 12:05:18;;;;;;;27.25;19.27;;;;;;;3.18;55.82;100509.88;1700106;83;21404;-41
2022/12/14 12:07:55;;;;;;;26.95;18.45;;;;;;;2.76;56.92;100505.86;1698148;84;21913;-48
2022/12/14 12:10:25;;;;;;;25.52;18.27;;;;;;;2.32;58.20;100506.05;1713073;82;20984;-38
2022/12/14 12:12:59;;;;;;;24.65;16.87;;;;;;;1.98;59.28;100505.21;1720970;81;21028;-39
2022/12/14 12:15:50;;;;;;;29.30;20.52;;;;;;;1.60;60.51;100509.76;1721268;82;21537;-47
2022/12/14 12:19:02;;;;;;;29.27;18.95;;;;;;;1.29;61.97;100507.67;1694125;82;21068;-41
2022/12/14 12:21:32;;;;;;;27.10;17.85;;;;;;;1.03;62.89;100513.44;1722376;81;20985;-39
2022/12/14 12:24:37;;;;;;;29.95;19.02;;;;;;;0.68;64.02;100520.55;1717944;81;21048;-47
2022/12/14 12:27:10;;;;;;;31.02;19.98;;;;;;;0.44;64.85;100530.67;1717443;83;21641;-41
2022/12/14 12:29:54;;;;;;;36.73;21.33;;;;;;;0.15;66.05;100530.66;1725358;83;20996;-41
2022/12/14 12:32:42;;;;;;;30.90;21.33;;;;;;;0.06;67.31;100537.06;1721828;82;21533;-48
2022/12/14 12:35:40;;;;;;;32.53;20.25;;;;;;;0.01;68.00;100530.86;1718280;81;21001;-48
2022/12/14 12:38:17;;;;;;;36.55;22.65;;;;;;;-0.08;68.80;100530.89;1718830;83;21063;-40
2022/12/14 12:40:49;;;;;;;35.92;21.55;;;;;;;-0.10;69.33;100531.64;1723986;83;21024;-46
2022/12/14 12:43:39;;;;;;;37.35;21.87;;;;;;;-0.14;69.86;100542.59;1724596;81;21071;-47
2022/12/14 12:46:16;;;;;;;41.60;23.98;;;;;;;-0.23;70.29;100541.77;1728189;83;21012;-48
2022/12/14 12:48:48;;;;;;;37.05;22.73;;;;;;;-0.39;70.78;100552.14;1701531;83;21037;-39
2022/12/14 12:51:46;;;;;;;41.85;26.95;;;;;;;-0.46;71.28;100561.25;1692167;83;21001;-48
2022/12/14 12:54:29;;;;;;;43.58;28.00;;;;;;;-0.58;71.58;100560.25;1690137;83;21472;-39
2022/12/14 12:56:56;;;;;;;51.23;31.40;;;;;;;-0.74;72.23;100565.44;1703076;83;21059;-48
2022/12/14 12:59:31;;;;;;;53.00;31.95;;;;;;;-0.86;72.90;100552.87;1703373;83;20990;-41
2022/12/14 13:02:02;;;;;;;50.98;31.97;;;;;;;-0.91;73.53;100562.44;1709234;83;21063;-48
2022/12/14 13:04:32;;;;;;;51.10;32.90;;;;;;;-0.96;74.09;100560.91;1723524;83;21000;-48
2022/12/14 13:07:07;;;;;;;52.55;33.10;;;;;;;-1.01;74.55;100557.23;1724771;83;22011;-40
2022/12/14 13:09:47;;;;;;;53.85;32.03;;;;;;;-1.07;74.85;100568.48;1715289;83;21005;-41
2022/12/14 13:12:36;;;;;;;56.42;34.20;;;;;;;-1.16;75.22;100563.77;1712384;83;21650;-46
2022/12/14 13:15:07;;;;;;;55.33;34.30;;;;;;;-1.23;75.75;100555.66;1763967;81;20996;-49
2022/12/14 13:17:44;;;;;;;56.77;33.92;;;;;;;-1.31;76.12;100549.27;1700683;82;21633;-41
2022/12/14 13:20:21;;;;;;;62.15;36.05;;;;;;;-1.40;76.72;100537.70;1748899;81;21064;-47
2022/12/14 13:22:48;;;;;;;67.50;39.03;;;;;;;-1.44;77.46;100541.34;1728483;83;21685;-40
2022/12/14 13:25:43;;;;;;;70.83;41.02;;;;;;;-1.50;77.92;100543.19;1708644;83;21507;-40
2022/12/14 13:28:30;;;;;;;69.95;41.15;;;;;;;-1.56;78.46;100549.28;1722713;83;21713;-46
2022/12/14 13:31:34;;;;;;;70.40;40.80;;;;;;;-1.58;79.40;100549.98;1758721;81;21048;-48
2022/12/14 13:34:27;;;;;;;62.30;38.35;;;;;;;-1.58;79.76;100561.53;1747741;81;21621;-40
2022/12/14 13:37:05;;;;;;;52.55;30.25;;;;;;;-1.63;79.82;100574.99;1759162;81;21140;-40
2022/12/14 13:39:52;;;;;;;48.30;29.00;;;;;;;-1.67;79.91;100586.32;1722626;83;21004;-47
2022/12/14 13:42:43;;;;;;;53.28;30.37;;;;;;;-1.82;79.76;100577.39;1734468;81;21178;-48
2022/12/14 13:45:21;;;;;;;49.42;27.77;;;;;;;-1.90;80.22;100579.95;1694085;82;21016;-40
2022/12/14 13:47:52;;;;;;;55.52;29.42;;;;;;;-1.94;80.55;100580.58;1714393;82;21063;-40
2022/12/14 13:50:33;;;;;;;53.45;31.52;;;;;;;-1.97;80.63;100585.16;1733538;82;21079;-40
2022/12/14 13:53:16;;;;;;;53.35;31.00;;;;;;;-2.03;80.79;100582.63;1677446;84;21149;-47
2022/12/14 13:55:54;;;;;;;51.42;30.15;;;;;;;-2.09;81.10;100581.89;1720098;82;21429;-40
